Time;durP1;ratioP1;P1;durP2;ratioP2;P2;SDS_P1;SDS_P2;PMS_P1;PMS_P2;Temp;Humidity;BMP_temperature;BMP_pressure;BME280_temperature;BME280_humidity;BME280_pressure;Samples;Min_cycle;Max_cycle;Signal;HPM_P1;HPM_P2
2021/08/16 00:00:23;;;;;;;0.05;0.05;;;;;;;24.93;46.45;99674.34;5110630;28;20101;-63
2021/08/16 00:02:49;;;;;;;0.10;0.10;;;;;;;24.90;46.74;99666.69;5110494;28;20051;-63
2021/08/16 00:05:15;;;;;;;0.00;0.00;;;;;;;24.88;46.59;99664.19;5092344;28;20044;-61
2021/08/16 00:07:42;;;;;;;0.10;0.10;;;;;;;24.85;46.62;99660.06;5110530;28;20418;-62
2021/08/16 00:10:09;;;;;;;0.10;0.10;;;;;;;24.82;46.67;99660.41;5110593;28;20039;-63
2021/08/16 00:12:35;;;;;;;0.10;0.10;;;;;;;24.81;46.77;99666.72;5110535;28;20514;-63
2021/08/16 00:15:01;;;;;;;0.10;0.10;;;;;;;24.83;46.68;99666.59;5110274;28;20051;-62
2021/08/16 00:17:27;;;;;;;0.10;0.10;;;;;;;24.82;46.86;99662.25;5110446;28;20675;-62
2021/08/16 00:19:54;;;;;;;0.13;0.13;;;;;;;24.79;46.88;99663.41;5075082;28;20650;-62
2021/08/16 00:22:20;;;;;;;0.10;0.10;;;;;;;24.76;46.93;99666.44;5110304;28;20335;-62
2021/08/16 00:24:47;;;;;;;0.10;0.10;;;;;;;24.76;46.87;99663.78;5109976;28;20123;-62
2021/08/16 00:27:13;;;;;;;0.10;0.10;;;;;;;24.77;46.97;99668.09;5110375;28;20044;-62
2021/08/16 00:29:39;;;;;;;0.35;0.35;;;;;;;24.74;46.98;99663.09;5091734;28;20105;-62
2021/08/16 00:32:05;;;;;;;0.20;0.20;;;;;;;24.74;47.04;99660.44;5109947;28;20055;-62
2021/08/16 00:34:31;;;;;;;0.00;0.00;;;;;;;24.73;46.83;99664.13;5110008;28;20121;-62
2021/08/16 00:36:58;;;;;;;0.30;0.30;;;;;;;24.71;47.09;99666.13;5092057;28;20422;-62
2021/08/16 00:39:24;;;;;;;0.10;0.10;;;;;;;24.72;47.11;99665.13;5109985;28;20055;-62
2021/08/16 00:41:50;;;;;;;0.00;0.00;;;;;;;24.62;47.13;99656.53;5109821;28;20078;-62
2021/08/16 00:44:16;;;;;;;0.13;0.13;;;;;;;24.70;47.25;99664.50;5109869;28;20130;-62
2021/08/16 00:46:42;;;;;;;0.10;0.10;;;;;;;24.70;47.19;99666.34;5109781;28;20139;-62
2021/08/16 00:49:08;;;;;;;0.10;0.10;;;;;;;24.69;46.93;99665.50;5109482;28;20737;-62
2021/08/16 00:51:36;;;;;;;0.10;0.10;;;;;;;24.63;47.21;99662.72;5091402;28;20055;-62
2021/08/16 00:54:03;;;;;;;0.10;0.10;;;;;;;24.65;47.31;99661.53;5074978;28;20117;-62
2021/08/16 00:56:29;;;;;;;0.22;0.22;;;;;;;24.67;47.30;99664.03;5074525;28;20047;-62
2021/08/16 00:58:58;;;;;;;0.10;0.10;;;;;;;24.65;47.36;99664.19;5109571;28;20052;-62
2021/08/16 01:01:27;;;;;;;0.10;0.10;;;;;;;24.65;47.34;99663.34;5109885;28;20040;-61
2021/08/16 01:03:53;;;;;;;0.15;0.15;;;;;;;24.64;47.41;99664.38;5109512;28;20280;-62
2021/08/16 01:06:19;;;;;;;0.47;0.47;;;;;;;24.62;47.34;99659.22;5109779;28;20056;-61
2021/08/16 01:08:46;;;;;;;0.20;0.20;;;;;;;24.63;47.41;99662.72;5109593;28;20050;-62
2021/08/16 01:11:12;;;;;;;0.10;0.10;;;;;;;24.62;47.43;99661.03;5091722;28;20568;-62
2021/08/16 01:13:38;;;;;;;0.10;0.10;;;;;;;24.61;47.81;99665.53;5109599;28;20059;-62
2021/08/16 01:16:05;;;;;;;0.10;0.10;;;;;;;24.57;47.33;99660.75;5091227;28;20055;-62
2021/08/16 01:18:32;;;;;;;0.57;0.30;;;;;;;24.59;47.46;99672.09;5109671;28;20084;-62
2021/08/16 01:20:59;;;;;;;0.10;0.10;;;;;;;24.59;47.58;99669.41;5109521;28;20051;-62
2021/08/16 01:23:25;;;;;;;0.00;0.00;;;;;;;24.56;47.59;99678.63;5091379;28;20130;-62
2021/08/16 01:25:51;;;;;;;0.10;0.10;;;;;;;24.49;47.67;99666.97;5109346;28;20067;-62
2021/08/16 01:28:20;;;;;;;0.00;0.00;;;;;;;24.53;47.74;99672.78;5109636;28;20062;-62
2021/08/16 01:30:49;;;;;;;0.10;0.10;;;;;;;24.53;47.75;99676.31;5109271;28;20081;-63
2021/08/16 01:33:15;;;;;;;0.10;0.10;;;;;;;24.49;47.68;99674.16;5075057;28;20051;-63
2021/08/16 01:35:41;;;;;;;0.10;0.10;;;;;;;24.49;47.78;99675.00;5091086;28;20074;-62
2021/08/16 01:38:07;;;;;;;0.10;0.10;;;;;;;24.49;47.88;99675.00;5109306;28;20395;-62
2021/08/16 01:40:33;;;;;;;0.17;0.17;;;;;;;24.47;47.88;99677.00;5091173;28;20044;-61
2021/08/16 01:43:00;;;;;;;0.32;0.32;;;;;;;24.47;47.88;99685.03;5109297;28;20468;-62
2021/08/16 01:45:26;;;;;;;0.20;0.20;;;;;;;24.47;47.89;99685.03;5109345;28;20048;-62
2021/08/16 01:47:52;;;;;;;1.92;0.52;;;;;;;24.46;47.94;99683.34;5109110;28;20184;-62
2021/08/16 01:50:18;;;;;;;0.45;0.45;;;;;;;24.47;47.92;99685.03;5109346;28;20048;-62
2021/08/16 01:52:44;;;;;;;0.10;0.10;;;;;;;24.47;47.98;99689.53;5109160;28;20062;-62
2021/08/16 01:55:10;;;;;;;0.20;0.20;;;;;;;24.46;47.98;99686.03;5108941;28;20048;-62
2021/08/16 01:57:37;;;;;;;0.50;0.50;;;;;;;24.41;47.94;99675.03;5109316;28;20090;-62
2021/08/16 02:00:03;;;;;;;0.10;0.10;;;;;;;24.46;47.97;99688.69;5090740;28;20479;-62
2021/08/16 02:02:38;;;;;;;0.10;0.10;;;;;;;24.46;47.92;99688.69;5111098;28;20421;-62
2021/08/16 02:05:07;;;;;;;0.10;0.10;;;;;;;24.45;47.81;99681.69;5112760;28;20471;-61
2021/08/16 02:07:33;;;;;;;0.20;0.20;;;;;;;24.49;47.91;99696.34;5113138;28;20047;-62
2021/08/16 02:09:59;;;;;;;0.00;0.00;;;;;;;24.49;47.80;99688.34;5112586;28;20328;-61
2021/08/16 02:12:25;;;;;;;0.10;0.10;;;;;;;24.52;47.80;99698.66;5077658;28;20048;-62
2021/08/16 02:14:51;;;;;;;0.10;0.10;;;;;;;24.61;47.60;99710.09;5094205;28;20066;-62
2021/08/16 02:17:17;;;;;;;0.10;0.10;;;;;;;24.64;47.57;99707.09;5094576;28;20113;-62
2021/08/16 02:19:43;;;;;;;0.22;0.22;;;;;;;24.68;47.40;99714.56;5112631;28;20418;-62
2021/08/16 02:22:09;;;;;;;0.10;0.10;;;;;;;24.71;47.38;99714.22;5094234;28;20421;-62
2021/08/16 02:24:35;;;;;;;0.10;0.10;;;;;;;24.78;47.20;99707.16;5094351;28;20043;-62
2021/08/16 02:27:01;;;;;;;0.10;0.10;;;;;;;25.03;46.70;99712.34;5094014;28;20056;-61
2021/08/16 02:29:27;;;;;;;0.15;0.15;;;;;;;25.28;45.93;99697.72;5093896;28;20085;-62
2021/08/16 02:31:53;;;;;;;0.10;0.10;;;;;;;25.52;45.35;99705.56;5093995;28;20048;-62
2021/08/16 02:34:18;;;;;;;0.10;0.10;;;;;;;25.75;44.80;99714.28;5094125;28;20082;-63
2021/08/16 02:36:44;;;;;;;0.10;0.10;;;;;;;25.80;44.54;99711.91;5094075;28;20044;-62
2021/08/16 02:39:10;;;;;;;0.10;0.10;;;;;;;25.91;44.50;99708.75;5112115;28;20051;-61
2021/08/16 02:41:38;;;;;;;1.98;0.60;;;;;;;26.11;43.88;99713.53;5112297;28;20047;-64
2021/08/16 02:44:05;;;;;;;0.10;0.10;;;;;;;26.39;43.45;99717.19;5111789;28;20056;-63
2021/08/16 02:46:32;;;;;;;0.40;0.25;;;;;;;26.71;42.48;99737.31;5111941;28;20047;-63
2021/08/16 02:48:59;;;;;;;0.10;0.10;;;;;;;26.87;42.11;99732.56;5093937;28;20043;-65
2021/08/16 02:51:27;;;;;;;0.13;0.13;;;;;;;26.63;42.49;99735.59;5112673;28;20130;-63
2021/08/16 02:53:55;;;;;;;0.10;0.10;;;;;;;26.46;42.78;99731.50;5060833;28;20071;-63
2021/08/16 02:56:21;;;;;;;0.10;0.10;;;;;;;26.56;42.77;99731.19;5112799;28;20051;-63
2021/08/16 02:58:51;;;;;;;0.10;0.10;;;;;;;26.88;42.14;99723.50;5077551;28;20134;-65
2021/08/16 03:01:17;;;;;;;0.20;0.20;;;;;;;27.40;40.82;99733.00;5112476;28;20056;-62
2021/08/16 03:03:43;;;;;;;0.20;0.20;;;;;;;27.65;40.33;99734.25;5112072;28;20165;-62
2021/08/16 03:06:09;;;;;;;0.10;0.10;;;;;;;27.85;40.18;99729.81;5111874;28;20048;-62
2021/08/16 03:08:36;;;;;;;0.10;0.10;;;;;;;27.97;39.92;99737.34;5111755;28;20054;-62
2021/08/16 03:11:02;;;;;;;0.10;0.10;;;;;;;28.10;39.27;99737.44;5093223;28;20075;-62
2021/08/16 03:13:29;;;;;;;0.10;0.10;;;;;;;27.92;39.65;99744.13;5111382;28;20142;-62
2021/08/16 03:15:55;;;;;;;0.20;0.20;;;;;;;28.12;39.50;99746.94;5111418;28;20056;-62
2021/08/16 03:18:21;;;;;;;0.25;0.25;;;;;;;28.53;38.62;99738.84;5093377;28;20044;-62
2021/08/16 03:20:47;;;;;;;0.10;0.10;;;;;;;28.76;38.12;99730.44;5111454;28;20051;-61
2021/08/16 03:23:13;;;;;;;0.32;0.32;;;;;;;29.04;37.39;99743.69;5092987;28;20150;-61
2021/08/16 03:25:39;;;;;;;0.20;0.20;;;;;;;29.03;37.64;99726.72;5111472;28;20444;-61
2021/08/16 03:28:05;;;;;;;0.10;0.10;;;;;;;29.06;37.67;99744.34;5092922;28;20047;-62
2021/08/16 03:30:31;;;;;;;0.20;0.20;;;;;;;29.23;37.34;99753.63;5092959;28;20047;-61
2021/08/16 03:32:57;;;;;;;0.20;0.20;;;;;;;29.59;36.54;99754.06;5110978;28;20051;-61
2021/08/16 03:35:23;;;;;;;0.20;0.20;;;;;;;29.91;36.09;99750.50;5110941;28;20134;-61
2021/08/16 03:37:49;;;;;;;0.20;0.20;;;;;;;30.24;35.35;99749.56;5111022;28;20112;-61
2021/08/16 03:40:15;;;;;;;0.20;0.20;;;;;;;30.50;35.03;99752.16;5110826;28;20445;-61
2021/08/16 03:42:41;;;;;;;0.10;0.10;;;;;;;30.71;34.42;99749.16;5092827;28;20545;-61
2021/08/16 03:45:11;;;;;;;0.20;0.20;;;;;;;30.72;34.54;99745.44;5110546;28;20047;-60
2021/08/16 03:47:37;;;;;;;0.30;0.30;;;;;;;30.91;34.05;99744.47;5110941;28;20124;-61
2021/08/16 03:50:07;;;;;;;0.40;0.40;;;;;;;31.19;33.79;99757.56;5092527;28;20556;-61
2021/08/16 03:52:33;;;;;;;0.20;0.20;;;;;;;31.41;33.06;99755.31;5110794;28;20567;-61
2021/08/16 03:54:59;;;;;;;0.30;0.30;;;;;;;31.62;32.79;99760.34;5092162;28;20060;-60
2021/08/16 03:57:25;;;;;;;0.30;0.30;;;;;;;31.79;32.71;99766.81;5092693;28;20039;-60
2021/08/16 03:59:51;;;;;;;0.20;0.20;;;;;;;32.01;32.05;99773.44;5075414;28;20138;-61
2021/08/16 04:02:17;;;;;;;0.20;0.20;;;;;;;32.07;32.16;99770.91;5092419;28;20150;-61
2021/08/16 04:04:43;;;;;;;0.30;0.30;;;;;;;32.32;31.78;99782.47;5110508;28;20070;-61
2021/08/16 04:07:10;;;;;;;0.20;0.20;;;;;;;32.54;31.03;99778.22;5110211;28;20043;-60
2021/08/16 04:09:37;;;;;;;0.20;0.20;;;;;;;32.68;30.63;99782.44;5092406;28;20047;-60
2021/08/16 04:12:03;;;;;;;0.30;0.30;;;;;;;32.84;30.78;99779.09;5092257;28;20105;-61
2021/08/16 04:14:29;;;;;;;0.15;0.15;;;;;;;32.96;30.28;99788.06;5092093;28;20051;-61
2021/08/16 04:16:55;;;;;;;0.20;0.20;;;;;;;33.10;30.33;99793.31;5110557;28;20059;-61
2021/08/16 04:19:21;;;;;;;0.20;0.20;;;;;;;33.15;30.18;99786.13;5110085;28;20101;-62
2021/08/16 04:21:48;;;;;;;0.20;0.20;;;;;;;33.24;30.02;99787.47;5092109;28;20051;-61
2021/08/16 04:24:14;;;;;;;0.20;0.20;;;;;;;33.33;29.63;99782.53;5109592;28;20048;-60
2021/08/16 04:26:40;;;;;;;0.20;0.20;;;;;;;33.46;29.57;99793.97;5110193;28;20134;-60
2021/08/16 04:29:05;;;;;;;0.20;0.20;;;;;;;33.62;29.26;99802.47;5109995;28;20043;-60
2021/08/16 04:31:32;;;;;;;0.20;0.20;;;;;;;33.76;29.10;99793.91;5110028;28;20557;-60
2021/08/16 04:33:58;;;;;;;0.30;0.30;;;;;;;33.90;28.81;99791.78;5091812;28;20044;-61
2021/08/16 04:36:24;;;;;;;0.20;0.20;;;;;;;33.99;28.93;99788.47;5109926;28;20122;-60
2021/08/16 04:38:50;;;;;;;0.50;0.50;;;;;;;34.10;28.67;99789.47;5110074;28;20123;-59
2021/08/16 04:41:16;;;;;;;0.20;0.20;;;;;;;34.16;28.40;99785.03;5109787;28;20143;-58
2021/08/16 04:43:42;;;;;;;0.30;0.30;;;;;;;34.28;28.11;99785.84;5110023;28;20756;-59
2021/08/16 04:46:07;;;;;;;0.40;0.40;;;;;;;34.35;28.30;99781.94;5109552;28;20077;-60
2021/08/16 04:48:33;;;;;;;0.20;0.20;;;;;;;34.43;28.11;99783.41;5110128;28;20047;-59
2021/08/16 04:51:00;;;;;;;0.20;0.20;;;;;;;34.55;27.73;99776.88;5109398;28;20605;-60
2021/08/16 04:53:25;;;;;;;0.20;0.20;;;;;;;34.68;27.82;99792.09;5109626;28;20051;-60
2021/08/16 04:55:52;;;;;;;0.20;0.20;;;;;;;34.76;27.38;99777.31;5109721;28;20426;-60
2021/08/16 04:58:18;;;;;;;0.20;0.20;;;;;;;34.84;27.67;99777.75;5109511;28;20047;-59
2021/08/16 05:00:44;;;;;;;0.20;0.20;;;;;;;34.83;27.45;99767.97;5109695;28;20043;-59
2021/08/16 05:03:10;;;;;;;0.30;0.30;;;;;;;34.96;27.24;99781.22;5109417;28;20043;-59
2021/08/16 05:05:36;;;;;;;0.47;0.47;;;;;;;34.99;27.29;99774.47;5109703;28;20038;-57
2021/08/16 05:08:03;;;;;;;0.10;0.10;;;;;;;34.85;27.36;99773.94;5109558;28;20514;-59
2021/08/16 05:10:29;;;;;;;0.32;0.32;;;;;;;34.72;27.55;99770.75;5074642;28;20047;-59
2021/08/16 05:12:57;;;;;;;0.20;0.20;;;;;;;34.72;27.56;99773.44;5109622;28;20044;-59
2021/08/16 05:15:23;;;;;;;0.20;0.20;;;;;;;34.77;27.45;99770.81;5091402;28;20040;-59
2021/08/16 05:17:49;;;;;;;0.20;0.20;;;;;;;34.85;27.54;99775.88;5109598;28;20055;-59
2021/08/16 05:20:15;;;;;;;0.30;0.30;;;;;;;34.95;27.49;99782.28;5091123;28;20047;-59
2021/08/16 05:22:43;;;;;;;0.35;0.35;;;;;;;34.93;27.23;99781.72;5109495;28;20132;-59
2021/08/16 05:25:09;;;;;;;0.52;0.52;;;;;;;34.88;27.48;99787.03;5091050;28;20541;-59
2021/08/16 05:27:35;;;;;;;0.17;0.17;;;;;;;34.73;27.53;99781.34;5109671;28;20106;-59
2021/08/16 05:30:01;;;;;;;0.10;0.10;;;;;;;34.59;27.94;99777.22;5109427;28;20046;-60
2021/08/16 05:32:27;;;;;;;0.20;0.20;;;;;;;34.65;27.74;99776.31;5091368;28;20514;-60
2021/08/16 05:34:53;;;;;;;0.17;0.17;;;;;;;34.48;28.19;99775.41;5109344;28;20146;-59
2021/08/16 05:37:19;;;;;;;0.15;0.15;;;;;;;34.50;28.17;99776.78;5092846;28;20060;-59
2021/08/16 05:39:45;;;;;;;0.13;0.13;;;;;;;34.53;28.04;99770.06;5113259;28;20125;-59
2021/08/16 05:42:14;;;;;;;0.10;0.10;;;;;;;34.54;28.11;99775.25;5113173;28;20498;-59
2021/08/16 05:44:40;;;;;;;0.22;0.22;;;;;;;34.50;28.19;99767.84;5113578;28;20059;-64
2021/08/16 05:47:06;;;;;;;0.20;0.20;;;;;;;34.53;27.91;99770.06;5078043;28;20043;-64
2021/08/16 05:49:32;;;;;;;0.10;0.10;;;;;;;34.72;27.73;99768.81;5113275;28;20138;-63
2021/08/16 05:51:58;;;;;;;0.20;0.20;;;;;;;34.82;27.75;99771.72;5113168;28;20044;-64
2021/08/16 05:54:24;;;;;;;0.10;0.10;;;;;;;34.82;27.69;99774.44;5112988;28;20055;-64
2021/08/16 05:56:50;;;;;;;0.10;0.10;;;;;;;34.91;27.72;99775.72;5112950;28;20055;-63
2021/08/16 05:59:16;;;;;;;0.10;0.10;;;;;;;34.98;27.80;99778.28;5077927;28;20052;-64
2021/08/16 06:01:42;;;;;;;0.20;0.20;;;;;;;34.99;27.46;99771.75;5112821;28;20536;-63
2021/08/16 06:04:08;;;;;;;0.13;0.13;;;;;;;35.08;27.53;99774.91;5077857;28;20043;-64
2021/08/16 06:06:35;;;;;;;0.10;0.10;;;;;;;35.09;27.51;99773.81;5112984;28;20043;-64
2021/08/16 06:09:01;;;;;;;0.40;0.40;;;;;;;35.14;27.38;99785.66;5112868;28;20039;-64
2021/08/16 06:11:27;;;;;;;0.10;0.10;;;;;;;35.22;27.26;99787.13;5112523;28;20048;-64
2021/08/16 06:13:53;;;;;;;0.20;0.20;;;;;;;35.40;27.11;99789.59;5112843;28;20055;-63
2021/08/16 06:16:19;;;;;;;0.20;0.20;;;;;;;35.83;26.41;99788.94;5112466;28;20710;-64
2021/08/16 06:18:45;;;;;;;0.20;0.20;;;;;;;37.44;24.10;99787.25;5112583;28;20043;-64
2021/08/16 06:21:11;;;;;;;0.17;0.17;;;;;;;40.92;20.16;99793.06;5112261;28;20075;-64
2021/08/16 06:23:37;;;;;;;0.30;0.30;;;;;;;43.64;16.90;99781.84;5112664;28;20047;-64
2021/08/16 06:26:03;;;;;;;0.20;0.20;;;;;;;45.33;15.38;99796.13;5112581;28;20047;-64
2021/08/16 06:28:29;;;;;;;0.30;0.30;;;;;;;46.26;14.26;99786.69;5112439;28;20051;-64
2021/08/16 06:30:55;;;;;;;0.40;0.40;;;;;;;46.81;13.73;99784.19;5112241;28;20086;-64
2021/08/16 06:33:21;;;;;;;0.40;0.40;;;;;;;47.18;13.60;99795.75;5112170;28;20091;-64
2021/08/16 06:35:48;;;;;;;0.50;0.50;;;;;;;47.38;13.29;99795.06;5077486;28;20068;-64
2021/08/16 06:38:23;;;;;;;0.28;0.28;;;;;;;47.39;13.19;99796.66;5112193;28;20044;-64
2021/08/16 06:40:56;;;;;;;0.30;0.30;;;;;;;47.28;13.21;99790.69;5112373;28;20063;-63
2021/08/16 06:43:23;;;;;;;0.20;0.20;;;;;;;47.08;13.57;99786.63;5094004;28;20117;-63
2021/08/16 06:45:49;;;;;;;0.20;0.20;;;;;;;45.80;14.60;99789.91;5111997;28;20074;-64
2021/08/16 06:48:15;;;;;;;0.17;0.17;;;;;;;42.69;17.21;99796.81;5111274;28;20044;-64
2021/08/16 06:50:41;;;;;;;0.10;0.10;;;;;;;39.92;20.47;99781.44;5111749;28;20044;-64
2021/08/16 06:53:07;;;;;;;0.10;0.10;;;;;;;38.26;22.85;99792.16;5111778;28;20051;-64
2021/08/16 06:55:33;;;;;;;0.20;0.20;;;;;;;37.29;23.92;99789.84;5111912;28;20047;-63
2021/08/16 06:58:00;;;;;;;0.57;0.57;;;;;;;36.71;24.97;99794.19;5112008;28;20051;-63
2021/08/16 07:00:26;;;;;;;0.10;0.10;;;;;;;36.22;25.40;99787.03;5093623;28;20585;-63
2021/08/16 07:02:52;;;;;;;0.20;0.20;;;;;;;35.68;26.26;99789.53;5111850;28;20052;-64
2021/08/16 07:05:18;;;;;;;0.17;0.17;;;;;;;35.23;26.88;99794.19;5093380;28;20043;-64
2021/08/16 07:07:44;;;;;;;0.20;0.20;;;;;;;34.80;27.83;99784.72;5076494;28;20046;-64
2021/08/16 07:10:10;;;;;;;0.10;0.10;;;;;;;34.60;27.85;99792.44;5111397;28;20426;-64
2021/08/16 07:12:36;;;;;;;0.20;0.20;;;;;;;34.25;28.52;99794.44;5111668;28;20043;-62
2021/08/16 07:15:03;;;;;;;1.38;1.38;;;;;;;33.94;29.33;99792.91;5111481;28;20055;-62
2021/08/16 07:17:29;;;;;;;0.10;0.10;;;;;;;33.70;29.56;99796.72;5092937;28;20681;-63
2021/08/16 07:19:55;;;;;;;0.15;0.15;;;;;;;33.65;29.93;99800.13;5111373;28;20097;-64
2021/08/16 07:22:21;;;;;;;0.25;0.15;;;;;;;33.61;29.70;99801.66;5092877;28;20077;-64
2021/08/16 07:24:47;;;;;;;0.10;0.10;;;;;;;33.54;29.75;99803.63;5111410;28;20143;-64
2021/08/16 07:27:13;;;;;;;0.20;0.20;;;;;;;33.39;30.32;99809.50;5111122;28;20100;-64
2021/08/16 07:29:39;;;;;;;0.05;0.05;;;;;;;33.30;30.42;99799.22;5093135;28;20054;-64
2021/08/16 07:32:05;;;;;;;0.10;0.10;;;;;;;33.38;30.31;99812.41;5092956;28;20059;-64
2021/08/16 07:34:33;;;;;;;0.20;0.20;;;;;;;33.45;29.92;99816.69;5111004;28;20047;-64
2021/08/16 07:36:59;;;;;;;0.20;0.20;;;;;;;33.49;30.04;99814.31;5092778;28;20549;-63
2021/08/16 07:39:25;;;;;;;0.10;0.10;;;;;;;33.51;29.87;99812.19;5110815;28;20056;-64
2021/08/16 07:41:51;;;;;;;0.10;0.10;;;;;;;33.45;30.35;99810.44;5111147;28;20043;-62
2021/08/16 07:44:17;;;;;;;0.20;0.20;;;;;;;33.39;30.42;99803.25;5110859;28;20062;-62
2021/08/16 07:46:43;;;;;;;0.50;0.50;;;;;;;33.38;30.18;99807.84;5110838;28;20052;-63
2021/08/16 07:49:09;;;;;;;0.10;0.10;;;;;;;33.28;30.12;99801.38;5110861;28;20082;-65
2021/08/16 07:51:35;;;;;;;0.10;0.10;;;;;;;33.25;30.68;99807.22;5110832;28;20056;-61
2021/08/16 07:54:01;;;;;;;0.03;0.03;;;;;;;33.19;30.76;99808.97;5110795;28;20051;-60
2021/08/16 07:56:27;;;;;;;0.10;0.10;;;;;;;33.08;30.72;99807.06;5110233;28;20051;-61
2021/08/16 07:58:53;;;;;;;0.10;0.10;;;;;;;33.00;30.90;99805.50;5110429;28;20533;-62
2021/08/16 08:01:19;;;;;;;0.10;0.10;;;;;;;32.91;31.22;99798.75;5074938;28;20054;-60
2021/08/16 08:03:46;;;;;;;0.10;0.10;;;;;;;32.82;31.31;99808.22;5110621;28;20614;-61
2021/08/16 08:06:12;;;;;;;0.10;0.10;;;;;;;32.78;31.29;99812.47;5092173;28;20050;-61
2021/08/16 08:08:38;;;;;;;0.03;0.03;;;;;;;32.65;31.53;99799.13;5110699;28;20411;-61
2021/08/16 08:11:04;;;;;;;0.10;0.10;;;;;;;32.59;31.26;99805.47;5110430;28;20046;-61
2021/08/16 08:13:32;;;;;;;0.10;0.10;;;;;;;32.43;31.37;99792.50;5110002;28;20068;-61
2021/08/16 08:15:58;;;;;;;0.03;0.03;;;;;;;32.41;31.59;99792.75;5110426;28;20126;-62
2021/08/16 08:18:25;;;;;;;0.30;0.30;;;;;;;32.36;31.60;99797.19;5110283;28;20078;-62
2021/08/16 08:20:51;;;;;;;0.10;0.10;;;;;;;32.25;31.77;99790.66;5110265;28;20494;-61
2021/08/16 08:23:18;;;;;;;0.10;0.10;;;;;;;32.23;31.78;99805.44;5110150;28;20048;-61
2021/08/16 08:25:44;;;;;;;0.10;0.10;;;;;;;31.83;32.02;99749.13;5091924;28;20131;-62
2021/08/16 08:28:15;;;;;;;0.00;0.00;;;;;;;32.08;32.17;99800.41;5075416;28;20044;-62
2021/08/16 08:30:42;;;;;;;0.10;0.10;;;;;;;32.01;32.37;99805.84;5110588;28;20410;-63
2021/08/16 08:33:08;;;;;;;0.10;0.10;;;;;;;31.90;32.13;99798.47;5110351;28;20055;-62
2021/08/16 08:35:34;;;;;;;0.10;0.10;;;;;;;31.82;32.44;99789.84;5091887;28;20048;-62
2021/08/16 08:38:00;;;;;;;0.10;0.10;;;;;;;31.75;32.57;99781.81;5092082;28;20426;-62
2021/08/16 08:40:27;;;;;;;0.50;0.50;;;;;;;31.60;32.87;99770.53;5109717;28;20074;-61
2021/08/16 08:42:54;;;;;;;12.02;0.68;;;;;;;31.56;32.86;99784.69;5109993;28;20096;-61
2021/08/16 08:45:21;;;;;;;0.10;0.10;;;;;;;31.48;32.71;99780.34;5109632;28;20039;-62
2021/08/16 08:47:47;;;;;;;0.00;0.00;;;;;;;31.45;32.76;99778.09;5109972;28;20127;-61
2021/08/16 08:50:16;;;;;;;0.08;0.08;;;;;;;31.50;32.37;99775.63;5109593;28;20185;-62
2021/08/16 08:52:43;;;;;;;0.00;0.00;;;;;;;31.55;32.53;99783.84;5091562;28;20104;-62
2021/08/16 08:58:51;;;;;;;0.10;0.10;;;;;;;31.71;31.86;99787.91;5110196;28;20181;-61
2021/08/16 09:01:17;;;;;;;0.17;0.17;;;;;;;31.74;32.11;99790.94;5091340;28;20575;-62
2021/08/16 09:03:49;;;;;;;0.00;0.00;;;;;;;31.63;31.99;99775.50;5109596;28;20043;-60
2021/08/16 09:06:17;;;;;;;0.30;0.30;;;;;;;31.69;32.30;99769.19;5091133;28;20043;-62
2021/08/16 09:08:43;;;;;;;0.00;0.00;;;;;;;31.59;31.76;99773.44;5109550;28;20048;-62
2021/08/16 09:11:13;;;;;;;0.20;0.20;;;;;;;31.60;32.42;99786.75;5110869;28;20059;-62
2021/08/16 09:13:49;;;;;;;0.10;0.10;;;;;;;31.58;32.41;99772.63;5113893;28;20075;-62
2021/08/16 09:16:15;;;;;;;0.10;0.10;;;;;;;31.55;32.62;99778.47;5113551;28;20051;-62
2021/08/16 09:18:41;;;;;;;0.08;0.08;;;;;;;31.58;32.32;99790.72;5095331;28;20047;-62
2021/08/16 09:21:08;;;;;;;0.13;0.13;;;;;;;31.51;32.51;99781.84;5113681;28;20059;-62
2021/08/16 09:23:54;;;;;;;0.10;0.10;;;;;;;31.60;32.36;99778.63;5113660;28;20553;-62
2021/08/16 09:26:28;;;;;;;0.03;0.03;;;;;;;31.68;32.14;99781.03;5113180;28;20043;-62
2021/08/16 09:28:54;;;;;;;0.00;0.00;;;;;;;31.75;31.90;99786.38;5113889;28;20039;-61
2021/08/16 09:31:21;;;;;;;0.30;0.30;;;;;;;31.81;31.97;99796.28;5095094;28;20073;-62
2021/08/16 09:33:57;;;;;;;0.20;0.20;;;;;;;31.75;31.69;99783.66;5095171;28;20122;-61
2021/08/16 09:36:36;;;;;;;0.00;0.00;;;;;;;31.78;31.81;99800.25;5077848;28;20426;-62
2021/08/16 09:39:23;;;;;;;0.10;0.10;;;;;;;31.65;32.11;99789.59;5113500;28;20055;-62
2021/08/16 09:41:59;;;;;;;0.10;0.10;;;;;;;31.63;31.89;99791.69;5113299;28;20056;-62
2021/08/16 09:44:27;;;;;;;0.10;0.10;;;;;;;31.61;32.20;99788.38;5094852;28;20056;-62
2021/08/16 09:47:08;;;;;;;0.10;0.10;;;;;;;31.62;32.10;99790.03;5112961;28;20111;-62
2021/08/16 09:49:33;;;;;;;0.00;0.00;;;;;;;31.68;32.05;99791.00;5094915;28;20051;-62
2021/08/16 09:52:10;;;;;;;0.10;0.10;;;;;;;31.66;31.93;99783.16;5113090;28;20063;-63
2021/08/16 09:54:37;;;;;;;0.10;0.10;;;;;;;31.59;32.12;99795.03;5113062;28;20113;-62
2021/08/16 09:57:04;;;;;;;0.65;0.30;;;;;;;31.49;32.26;99798.22;5113051;28;20043;-62
2021/08/16 09:59:31;;;;;;;0.10;0.10;;;;;;;31.46;32.17;99793.25;5112995;28;20538;-62
2021/08/16 10:01:57;;;;;;;0.30;0.30;;;;;;;31.39;32.32;99789.78;5112966;28;20050;-61
2021/08/16 10:04:23;;;;;;;0.10;0.10;;;;;;;31.30;32.88;99793.81;5112724;28;20039;-62
2021/08/16 10:06:50;;;;;;;0.10;0.10;;;;;;;31.23;32.64;99790.31;5094506;28;20047;-62
2021/08/16 10:09:17;;;;;;;0.30;0.30;;;;;;;31.10;32.89;99788.56;5077968;28;20403;-62
2021/08/16 10:11:43;;;;;;;0.20;0.20;;;;;;;31.02;33.16;99794.22;5112748;28;20048;-62
2021/08/16 10:14:09;;;;;;;0.08;0.08;;;;;;;30.94;33.23;99787.19;5112590;28;20053;-62
2021/08/16 10:16:38;;;;;;;0.00;0.00;;;;;;;30.91;33.43;99790.31;5094278;28;20052;-63
2021/08/16 10:19:05;;;;;;;;;;;;;;;30.88;33.38;99787.22;5078314;28;20065;-63
2021/08/16 10:21:31;;;;;;;0.20;0.20;;;;;;;30.82;33.52;99788.09;5093950;28;19930;-63
2021/08/16 10:23:57;;;;;;;0.10;0.10;;;;;;;30.71;33.52;99792.31;5076649;28;20048;-62
2021/08/16 10:26:33;;;;;;;0.20;0.20;;;;;;;30.71;33.51;99789.59;5112280;28;20044;-62
2021/08/16 10:29:01;;;;;;;0.00;0.00;;;;;;;30.68;33.78;99781.13;5077753;28;20074;-62
2021/08/16 10:31:31;;;;;;;0.20;0.20;;;;;;;30.65;33.91;99787.78;5112156;28;20057;-63
2021/08/16 10:33:57;;;;;;;0.00;0.00;;;;;;;30.65;33.97;99787.78;5112508;28;20051;-63
2021/08/16 10:36:23;;;;;;;0.20;0.20;;;;;;;30.64;33.87;99790.66;5112094;28;20054;-63
2021/08/16 10:38:55;;;;;;;0.38;0.38;;;;;;;30.52;33.96;99777.06;5094047;28;20043;-63
2021/08/16 10:41:28;;;;;;;0.10;0.10;;;;;;;30.58;33.84;99797.75;5111760;28;20043;-63
2021/08/16 10:43:55;;;;;;;0.20;0.20;;;;;;;30.55;33.81;99786.56;5112105;28;20047;-63
2021/08/16 10:46:22;;;;;;;0.10;0.10;;;;;;;30.54;33.96;99790.31;5111560;28;20040;-62
2021/08/16 10:49:04;;;;;;;0.10;0.10;;;;;;;30.48;33.92;99782.06;5093918;28;20522;-63
2021/08/16 10:51:40;;;;;;;0.08;0.08;;;;;;;30.46;34.09;99776.03;5111297;28;20055;-63
2021/08/16 10:54:06;;;;;;;0.10;0.10;;;;;;;30.47;34.16;99782.25;5093716;28;20059;-63
2021/08/16 10:56:32;;;;;;;0.00;0.00;;;;;;;30.50;34.18;99783.72;5093242;28;20479;-64
2021/08/16 10:58:58;;;;;;;0.10;0.10;;;;;;;30.39;34.10;99760.91;5111893;28;20221;-64
2021/08/16 11:01:27;;;;;;;0.10;0.10;;;;;;;30.45;34.11;99781.66;5093158;28;20641;-63
2021/08/16 11:04:00;;;;;;;0.30;0.30;;;;;;;30.39;34.09;99766.31;5111767;28;20526;-64
2021/08/16 11:06:26;;;;;;;0.03;0.03;;;;;;;30.39;33.82;99766.31;5111518;28;20053;-63
2021/08/16 11:09:03;;;;;;;0.10;0.10;;;;;;;30.36;34.04;99766.75;5111740;28;20071;-63
2021/08/16 11:11:35;;;;;;;0.10;0.08;;;;;;;30.36;33.87;99766.75;5111419;28;20067;-64
2021/08/16 11:14:05;;;;;;;0.10;0.10;;;;;;;30.34;33.89;99782.28;5111358;28;20058;-64
2021/08/16 11:16:31;;;;;;;0.10;0.10;;;;;;;30.34;33.79;99768.78;5111523;28;20040;-64
2021/08/16 11:18:57;;;;;;;0.10;0.10;;;;;;;30.33;33.77;99769.88;5093776;28;20056;-64
2021/08/16 11:21:25;;;;;;;0.10;0.10;;;;;;;30.31;33.88;99767.38;5111407;28;20546;-63
2021/08/16 11:23:56;;;;;;;0.25;0.25;;;;;;;30.32;33.88;99771.72;5076788;28;20047;-64
2021/08/16 11:26:23;;;;;;;0.00;0.00;;;;;;;30.31;33.88;99758.44;5092950;28;20055;-63
2021/08/16 11:28:50;;;;;;;0.20;0.20;;;;;;;30.31;34.11;99753.91;5093072;28;20521;-63
2021/08/16 11:31:16;;;;;;;0.10;0.10;;;;;;;30.29;33.89;99752.47;5093028;28;20047;-64
2021/08/16 11:33:42;;;;;;;0.00;0.00;;;;;;;30.30;33.94;99763.00;5092644;28;20047;-65
2021/08/16 11:36:14;;;;;;;0.00;0.00;;;;;;;30.30;34.04;99757.63;5111022;28;20427;-62